createdAt,value
2018-10-11T04:32:39.766Z,15.78
2018-10-11T07:03:20.408Z,16.86
2018-10-11T07:06:36.453Z,16.97
2018-10-11T07:09:52.100Z,17.05
2018-10-11T07:12:24.981Z,17.11
2018-10-11T07:15:49.619Z,17.25
2018-10-11T07:18:52.280Z,17.42
2018-10-11T07:21:29.477Z,17.50
2018-10-11T08:21:25.450Z,19.63
2018-10-11T09:51:54.667Z,22.78
2018-10-11T09:55:11.670Z,22.92
2018-10-11T10:02:13.055Z,22.99
2018-10-11T10:05:29.546Z,23.00
2018-10-11T10:13:57.228Z,22.99
2018-10-11T11:02:16.097Z,25.03
2018-10-11T11:04:45.704Z,24.82
2018-10-11T11:07:15.334Z,24.78
2018-10-11T11:09:45.087Z,24.71
2018-10-11T11:12:24.178Z,24.73
2018-10-11T11:14:55.201Z,24.80
2018-10-11T11:17:24.801Z,24.82
2018-10-11T11:19:54.306Z,24.85
2018-10-11T11:22:25.802Z,24.79
2018-10-11T11:25:03.798Z,24.86
2018-10-11T11:27:40.664Z,24.96
2018-10-11T11:35:55.951Z,25.09
2018-10-11T11:38:29.953Z,25.15
2018-10-11T11:41:22.115Z,25.15
2018-10-11T11:44:29.408Z,25.18
2018-10-11T11:58:09.716Z,27.30
2018-10-11T12:01:13.054Z,27.63
2018-10-11T12:48:50.542Z,26.62
2018-10-11T12:51:24.017Z,26.69
2018-10-11T12:53:58.623Z,26.82
2018-10-11T12:56:36.636Z,26.95
2018-10-11T12:59:11.054Z,26.90
2018-10-11T13:01:49.928Z,26.91
2018-10-11T13:04:20.762Z,26.93
2018-10-11T13:06:52.213Z,26.99
2018-10-11T13:09:53.752Z,27.06
2018-10-11T13:16:14.895Z,26.96
2018-10-11T13:18:57.868Z,26.96
2018-10-11T13:21:36.565Z,26.99
2018-10-11T13:24:23.872Z,27.06
2018-10-11T13:27:00.333Z,27.12
2018-10-11T13:29:40.564Z,27.16
2018-10-11T13:32:18.351Z,27.10
2018-10-11T13:35:07.793Z,27.03
2018-10-11T13:37:52.092Z,26.99
2018-10-11T13:43:18.601Z,27.00
2018-10-11T13:45:59.021Z,26.99
2018-10-11T13:48:39.374Z,27.08
2018-10-11T13:51:10.684Z,27.11
2018-10-11T13:53:53.130Z,27.07
2018-10-11T13:56:28.230Z,26.99
2018-10-11T13:59:06.964Z,26.92
2018-10-11T14:01:41.561Z,26.90
2018-10-11T14:04:15.135Z,26.97
2018-10-11T14:07:17.509Z,27.02
2018-10-11T14:09:49.880Z,27.04
2018-10-11T14:12:23.012Z,26.96
2018-10-11T14:17:37.778Z,26.96
2018-10-11T14:20:17.248Z,26.96
2018-10-11T14:22:50.912Z,26.95
2018-10-11T14:25:22.167Z,26.95
2018-10-11T14:28:03.252Z,26.96
2018-10-11T14:30:35.758Z,26.94
2018-10-11T14:33:07.983Z,26.94
2018-10-11T14:35:39.034Z,26.91
2018-10-11T14:38:15.435Z,26.88
2018-10-11T14:40:46.501Z,26.85
2018-10-11T14:46:13.285Z,26.67
2018-10-11T14:49:52.690Z,26.62
2018-10-11T14:52:23.672Z,26.46
2018-10-11T14:54:54.062Z,26.32
2018-10-11T14:57:23.960Z,26.26
2018-10-11T14:59:55.552Z,26.23
2018-10-11T15:02:25.171Z,26.19
2018-10-11T15:04:56.202Z,26.16
2018-10-11T15:07:29.478Z,26.12
2018-10-11T15:09:59.289Z,26.06
2018-10-11T15:12:29.012Z,25.98
2018-10-11T15:14:59.438Z,25.96
2018-10-11T15:17:29.978Z,25.96
2018-10-11T15:19:59.451Z,25.89
2018-10-11T15:22:29.128Z,25.84
2018-10-11T15:25:01.124Z,25.81
2018-10-11T15:27:30.936Z,25.78
2018-10-11T15:30:01.775Z,25.74
2018-10-11T15:32:36.571Z,25.60
2018-10-11T15:35:12.119Z,25.51
2018-10-11T15:37:46.637Z,25.45
2018-10-11T15:40:25.566Z,25.35
2018-10-11T15:42:55.748Z,25.26
2018-10-11T15:45:26.517Z,25.19
2018-10-11T15:48:05.471Z,25.10
2018-10-11T15:50:38.975Z,24.98
2018-10-11T15:53:11.385Z,24.91
2018-10-11T15:55:48.866Z,24.82
2018-10-11T15:58:28.049Z,24.71
2018-10-11T16:01:04.513Z,24.61
2018-10-11T16:03:35.925Z,24.53
2018-10-11T16:06:12.799Z,24.45
2018-10-11T16:08:45.419Z,24.39
2018-10-11T16:11:16.962Z,24.33
2018-10-11T16:13:48.686Z,24.28
2018-10-11T16:16:18.442Z,24.19
2018-10-11T16:18:48.295Z,24.11
2018-10-11T16:21:30.761Z,24.01
2018-10-11T16:24:10.817Z,23.87
2018-10-11T16:26:56.233Z,23.74
2018-10-11T16:29:26.249Z,23.61
2018-10-11T16:31:56.166Z,23.53
2018-10-11T16:34:26.093Z,23.43
2018-10-11T16:36:59.578Z,23.37
2018-10-11T16:39:35.302Z,23.29
2018-10-11T16:42:08.451Z,23.19
2018-10-11T16:44:38.857Z,23.09
2018-10-11T16:47:10.881Z,23.02
2018-10-11T16:49:49.740Z,22.98
2018-10-11T16:52:23.128Z,22.90
2018-10-11T16:54:59.780Z,22.84
2018-10-11T16:57:37.991Z,22.81
2018-10-11T17:00:11.231Z,22.77
2018-10-11T17:02:41.191Z,22.71
2018-10-11T17:05:14.696Z,22.65
2018-10-11T17:07:46.870Z,22.59
2018-10-11T17:10:18.025Z,22.55
2018-10-11T17:12:47.683Z,22.49
2018-10-11T17:15:17.360Z,22.43
2018-10-11T17:17:47.164Z,22.39
2018-10-11T17:20:20.308Z,22.34
2018-10-11T17:22:50.070Z,22.31
2018-10-11T17:25:20.163Z,22.27
2018-10-11T17:27:55.467Z,22.22
2018-10-11T17:30:29.019Z,22.14
2018-10-11T17:33:01.691Z,22.07
2018-10-11T17:35:31.532Z,22.03
2018-10-11T17:38:08.495Z,21.97
2018-10-11T17:40:44.643Z,21.92
2018-10-11T17:43:17.476Z,21.87
2018-10-11T17:45:48.174Z,21.80
2018-10-11T17:48:18.108Z,21.76
2018-10-11T17:50:48.016Z,21.70
2018-10-11T17:53:19.862Z,21.68
2018-10-11T17:55:50.706Z,21.66
2018-10-11T17:58:20.690Z,21.59
2018-10-11T18:00:54.231Z,21.52
2018-10-11T18:03:28.442Z,21.42
2018-10-11T18:06:03.902Z,21.33
2018-10-11T18:08:34.668Z,21.26
2018-10-11T18:11:05.421Z,21.19
2018-10-11T18:13:36.110Z,21.13
2018-10-11T18:16:07.732Z,21.12
2018-10-11T18:18:40.550Z,21.07
2018-10-11T18:21:11.539Z,21.01
2018-10-11T18:23:48.441Z,20.93
2018-10-11T18:26:22.421Z,20.84
2018-10-11T18:28:52.982Z,20.78
2018-10-11T18:31:22.654Z,20.73
2018-10-11T18:34:27.570Z,20.67
2018-10-11T18:37:00.824Z,20.60
2018-10-11T18:39:40.429Z,20.58
2018-10-11T18:42:25.981Z,20.56
2018-10-11T18:45:11.053Z,20.52
2018-10-11T18:47:44.667Z,20.43
2018-10-11T18:51:26.616Z,20.37
2018-10-11T18:54:01.547Z,20.20
2018-10-11T18:56:46.039Z,20.18
2018-10-11T18:59:19.282Z,20.17
2018-10-11T19:01:51.299Z,20.16
2018-10-11T19:04:21.260Z,20.12
2018-10-11T19:06:55.376Z,20.09
2018-10-11T19:09:39.010Z,20.03
2018-10-11T19:12:12.498Z,19.96
2018-10-11T19:14:48.836Z,19.93
2018-10-11T19:17:27.910Z,19.91
2018-10-11T19:20:02.346Z,19.89
2018-10-11T19:22:34.769Z,19.90
2018-10-11T19:25:05.323Z,19.87
2018-10-11T19:27:37.767Z,19.79
2018-10-11T19:30:07.681Z,19.73
2018-10-11T19:32:39.068Z,19.67
2018-10-11T19:35:25.199Z,19.65
2018-10-11T19:38:01.492Z,19.65
2018-10-11T19:40:31.430Z,19.65
2018-10-11T19:43:01.923Z,19.65
2018-10-11T19:45:31.517Z,19.61
2018-10-11T19:48:01.528Z,19.54
2018-10-11T19:50:30.884Z,19.45
2018-10-11T19:53:01.215Z,19.37
2018-10-11T19:55:30.791Z,19.26
2018-10-11T19:58:01.324Z,19.21
2018-10-11T20:00:40.481Z,19.20
2018-10-11T20:03:12.503Z,19.20
2018-10-11T20:05:44.555Z,19.18
2018-10-11T20:08:16.555Z,19.19
2018-10-11T20:10:45.988Z,19.18
2018-10-11T20:13:16.140Z,19.15
2018-10-11T20:15:46.734Z,19.06
2018-10-11T20:18:20.933Z,18.97
2018-10-11T20:20:50.418Z,18.91
2018-10-11T20:23:20.585Z,18.88
2018-10-11T20:25:51.572Z,18.86
2018-10-11T20:28:22.133Z,18.81
2018-10-11T20:30:52.902Z,18.78
2018-10-11T20:33:22.473Z,18.72
2018-10-11T20:35:52.932Z,18.66
2018-10-11T20:38:22.404Z,18.60
2018-10-11T20:40:51.941Z,18.55
2018-10-11T20:43:22.321Z,18.49
2018-10-11T20:45:53.097Z,18.40
2018-10-11T20:48:23.042Z,18.39
2018-10-11T20:50:56.228Z,18.38
2018-10-11T20:53:26.824Z,18.38
2018-10-11T20:56:06.612Z,18.39
2018-10-11T20:58:38.546Z,18.39
2018-10-11T21:01:08.404Z,18.39
2018-10-11T21:03:41.163Z,18.43
2018-10-11T21:06:11.419Z,18.39
2018-10-11T21:08:41.129Z,18.34
2018-10-11T21:11:12.344Z,18.25
2018-10-11T21:13:43.010Z,18.19
2018-10-11T21:16:16.374Z,18.16
2018-10-11T21:19:08.323Z,18.16
2018-10-11T21:21:38.080Z,18.11
2018-10-11T21:24:07.728Z,18.08
2018-10-11T21:26:37.936Z,18.12
2018-10-11T21:29:07.615Z,18.15
2018-10-11T21:31:37.258Z,18.18
2018-10-11T21:34:07.348Z,18.21
2018-10-11T21:36:37.189Z,18.22
2018-10-11T21:39:11.646Z,18.22
2018-10-11T21:41:42.779Z,18.22
2018-10-11T21:44:15.068Z,18.24
2018-10-11T21:46:48.491Z,18.22
2018-10-11T21:49:18.593Z,18.13
2018-10-11T21:51:51.217Z,18.04
2018-10-11T21:54:24.312Z,18.01
2018-10-11T21:56:54.121Z,18.00
2018-10-11T21:59:26.181Z,17.99
2018-10-11T22:01:57.339Z,17.95
2018-10-11T22:04:29.346Z,17.95
2018-10-11T22:06:59.115Z,17.95
2018-10-11T22:09:30.040Z,17.94
2018-10-11T22:12:02.469Z,17.85
2018-10-11T22:14:33.184Z,17.77
2018-10-11T22:17:03.492Z,17.74
2018-10-11T22:19:39.792Z,17.68
2018-10-11T22:22:10.560Z,17.60
2018-10-11T22:24:44.984Z,17.58
2018-10-11T22:27:14.480Z,17.53
2018-10-11T22:29:44.117Z,17.52
2018-10-11T22:32:13.879Z,17.50
2018-10-11T22:34:44.389Z,17.49
2018-10-11T22:37:15.426Z,17.47
2018-10-11T22:39:44.936Z,17.49
2018-10-11T22:42:14.600Z,17.45
2018-10-11T22:44:44.673Z,17.45
2018-10-11T22:47:14.247Z,17.45
2018-10-11T22:49:43.776Z,17.44
2018-10-11T22:52:14.566Z,17.44
2018-10-11T22:54:46.622Z,17.45
2018-10-11T22:57:19.203Z,17.42
2018-10-11T22:59:51.739Z,17.40
2018-10-11T23:02:21.459Z,17.35
2018-10-11T23:04:51.079Z,17.37
2018-10-11T23:07:20.895Z,17.37
2018-10-11T23:09:50.830Z,17.36
2018-10-11T23:12:23.599Z,17.29
2018-10-11T23:14:53.734Z,17.20
2018-10-11T23:17:25.481Z,17.11
2018-10-11T23:19:55.346Z,17.03
2018-10-11T23:22:25.640Z,17.00
2018-10-11T23:24:55.437Z,16.93
2018-10-11T23:27:25.304Z,16.91
2018-10-11T23:29:55.115Z,16.94
2018-10-11T23:32:31.947Z,16.88
2018-10-11T23:35:03.052Z,16.85
2018-10-11T23:37:32.677Z,16.89
2018-10-11T23:40:02.318Z,16.92
2018-10-11T23:42:32.930Z,16.93
2018-10-11T23:45:02.751Z,16.95
2018-10-11T23:47:32.373Z,16.97
2018-10-11T23:50:01.892Z,16.98
2018-10-11T23:52:31.332Z,16.94
2018-10-11T23:55:00.960Z,16.93
2018-10-11T23:57:31.368Z,16.93
